AirNav   TITAN Aviation Fuels
 
 1054 users online  

46NC Brown Field Airport
Marshville, North Carolina, USA

GOING TO MARSHVILLE?


FAA INFORMATION EFFECTIVE 01 DECEMBER 2022

Location

FAA Identifier: 46NC
Lat/Long: 34-53-34.0000N 080-22-24.0000W
34-53.566667N 080-22.400000W
34.8927778,-80.3733333
(estimated)
Elevation: 400 ft. / 122 m (estimated)
Variation: 06W (1995)
From city: 6 miles N of MARSHVILLE, NC
Time zone: UTC -5 (UTC -4 during Daylight Saving Time)
Zip code: 28103

Airport Operations

Airport use: Private use. Permission required prior to landing
Activation date: 08/1999
Control tower: no
ARTCC: ATLANTA CENTER
FSS: RALEIGH FLIGHT SERVICE STATION
Attendance: CONTINUOUS
Wind indicator: yes
Segmented circle: no

Airport Communications

UNICOM: 122.8
WX ASOS at EQY (14 nm NW): 135.775 (704-283-5185)
WX AWOS-3 at AFP (16 nm NE): 119.325 (704-695-0623)

Nearby radio navigation aids

VOR radial/distance  VOR name  Freq  Var
CTFr345/15.3CHESTERFIELD VOR/DME114.5503W
CLTr127/33.6CHARLOTTE VOR/DME115.0005W

 
NDB name  Hdg/Dist  Freq  Var  ID
LANCASTER074/26.040007WLKR .-.. -.- .-.
HARTSVILLE344/31.734107WHVS .... ...- ...
BENNETTSVILLE305/35.523008WBES -... . ...
DARLINGTON324/36.124506WUDG ..- -.. --.

Airport Services

Runway Information

Runway 9/27

Dimensions: 1500 x 300 ft. / 457 x 91 m
Surface: turf
RUNWAY 9  RUNWAY 27
Traffic pattern: leftleft
Obstructions: 25 ft. trees25 ft. trees

Airport Ownership and Management from official FAA records

Ownership: Privately-owned
Owner: JAMES M. BROWN
3355 LANES CREEK ROAD
MARSHVILLE, NC 28103
Phone 704-624-1924
Manager: MIKE BROWN
3355 LANES CREEK ROAD
MARSHVILLE, NC 28103
Phone 704-624-1924

Airport Operational Statistics

Aircraft based on the field: 3
Single engine airplanes: 3
    

Additional Remarks

200 FT RADIO TOWER 5 NM NORTHWEST OF ARPT.
FOR CD CTC CHARLOTTE APCH AT 704-359-0241.

Instrument Procedures

There are no published instrument procedures at 46NC.

Some nearby airports with instrument procedures:

KPYG - Pageland Airport (9 nm S)
KEQY - Charlotte-Monroe Executive Airport (14 nm NW)
KAFP - Anson County Airport - Jeff Cloud Field (16 nm NE)
N52 - JAARS-Townsend Airport (19 nm W)
KCQW - Cheraw Municipal Airport/Lynch Bellinger Field (23 nm SE)
 
Loc | Ops | Rwys | IFR | FBO | Links
Com | Nav | Svcs | Stats | Notes
Area around 46NC (Brown Field Airport)
 
Road maps at: MapQuest Bing Google
 
Aerial photo
No photo
 
Sectional chart

 
Airport distance calculator
Flying to Brown Field Airport? Find the distance to fly.

From to 46NC

Sunrise and sunset
Times for 06-Dec-2022
 Local
(UTC-5)
 Zulu
(UTC)
Morning civil twilight06:4811:48
Sunrise07:1612:16
Sunset17:0922:09
Evening civil twilight17:3722:37

Current date and time
Zulu (UTC)  07-Dec-2022 03:47:59
Local (UTC-5)  06-Dec-2022 22:47:59
 
METAR
KEQY 
14nm NW 
070253Z AUTO 00000KT 1/4SM FG VV002 11/11 A3025 RMK AO2 SLP256 T01060106 51005
KAFP 
16nm NE 
070335Z AUTO 00000KT 5SM BR OVC004 12/11 A3026 RMK AO2 T01150105
KCQW 
23nm SE 
070335Z AUTO 00000KT 5SM BR 14/13 A3026 RMK AO2
KLKR 
26nm SW 
070335Z AUTO 00000KT 1/4SM FG OVC002 11/11 A3026 RMK AO2
TAF
KCLT 
34nm NW 
070153Z 0702/0806 VRB03KT 1/2SM -DZ FG OVC002 FM070400 VRB02KT 1/4SM -RADZ FG OVC001 FM071600 21004KT 1SM -DZ BR OVC003 FM071800 23005KT 5SM BR OVC006 FM072300 23004KT 6SM BR SCT006 BKN012
NOTAMs
Click for the latest NOTAMs
NOTAMs are issued by the DoD/FAA and will open in a separate window not controlled by AirNav.

 

 
 

Would you like to see your business listed on this page?

 If your business provides an interesting product or service to pilots, flight crews, aircraft, or users of the Brown Field Airport, you should consider listing it here.  To start the listing process, click on the button below
 
Add a business
 

Other Pages about Brown Field Airport

Update a link
 
Copyright © AirNav, LLC. All rights reserved. Privacy Policy  Contact